Carnlough, United Kingdom
Current Conditions -  °F | °C
As of 2:50 PM on Friday 19 Dec 2014 (Local Time) from EGAA Reporting Station
Broken Clouds Broken Clouds  
Wind Chill: 32°   Ceiling: 3900
Heat Index: 41°   Visibility: 6mi
Dew Point: 37°   Wind: 17mph
Humidity: 87%   Direction: 250°WSW
Pressure: 29.88"   Gusts: NA
Location:  54.99°N, 5.99°W
Report Text: EGAA 191450Z 25015KT 9999 FEW026 BKN039 05/03 Q1012
Loading
Personal Weather Stations






























Interactive Weather Map New forecast layout! Learn more

10-Day Weather Forecast

Advertisements
Track Severe Weather on mobile